Time;durP1;ratioP1;P1;durP2;ratioP2;P2;SDS_P1;SDS_P2;PMS_P1;PMS_P2;Temp;Humidity;BMP_temperature;BMP_pressure;BME280_temperature;BME280_humidity;BME280_pressure;Samples;Min_cycle;Max_cycle;Signal;HPM_P1;HPM_P2
2021/11/17 02:28:18;;;;;;;83.22;27.83;;;6.10;99.90;;;;;;5023473;28;20048;-88
2021/11/17 02:31:13;;;;;;;92.47;30.33;;;6.10;99.90;;;;;;5013839;28;20030;-88
2021/11/17 02:33:57;;;;;;;80.78;27.77;;;6.10;99.90;;;;;;4981071;28;20474;-87
2021/11/17 02:36:49;;;;;;;93.47;29.15;;;6.10;99.90;;;;;;5003150;28;20164;-88
2021/11/17 02:39:33;;;;;;;79.43;26.83;;;6.20;99.90;;;;;;5024342;28;20032;-88
2021/11/17 02:42:18;;;;;;;79.15;27.90;;;6.10;99.90;;;;;;5000213;28;20843;-89
2021/11/17 02:45:16;;;;;;;77.30;25.90;;;6.20;99.90;;;;;;5039008;28;20522;-91
2021/11/17 02:48:20;;;;;;;81.78;26.67;;;6.20;99.90;;;;;;5024382;28;20028;-90
2021/11/17 02:51:13;;;;;;;81.47;29.20;;;6.20;99.90;;;;;;5037860;28;20092;-90
2021/11/17 02:54:12;;;;;;;84.03;28.30;;;6.20;99.90;;;;;;5021562;28;20021;-90
2021/11/17 02:57:10;;;;;;;76.88;26.05;;;6.20;99.90;;;;;;5046644;28;20423;-90
2021/11/17 02:59:45;;;;;;;79.20;29.15;;;6.20;99.90;;;;;;4993984;28;20065;-89
2021/11/17 03:02:26;;;;;;;84.20;27.33;;;6.10;99.90;;;;;;5026924;28;20481;-90
2021/11/17 03:05:13;;;;;;;82.53;26.85;;;6.20;99.90;;;;;;5016986;28;20108;-89
2021/11/17 03:08:31;;;;;;;76.68;27.67;;;6.10;99.90;;;;;;5031223;28;20163;-89
2021/11/17 03:11:18;;;;;;;76.40;27.25;;;6.20;99.90;;;;;;5045044;28;20130;-90
2021/11/17 03:13:53;;;;;;;75.00;26.65;;;6.20;99.90;;;;;;5034729;28;20064;-89
2021/11/17 03:16:38;;;;;;;75.35;26.48;;;6.20;99.90;;;;;;5015451;28;20121;-89
2021/11/17 03:19:28;;;;;;;80.15;27.35;;;6.20;99.90;;;;;;5023632;28;20040;-90
2021/11/17 03:22:09;;;;;;;84.57;29.27;;;6.20;99.90;;;;;;5017652;28;20094;-89
2021/11/17 03:25:04;;;;;;;79.38;26.40;;;6.20;99.90;;;;;;5031272;28;20020;-89
2021/11/17 03:27:52;;;;;;;73.35;25.88;;;6.10;99.90;;;;;;4990486;28;20057;-89
2021/11/17 03:30:36;;;;;;;80.95;28.33;;;6.20;99.90;;;;;;5033618;28;20028;-88
2021/11/17 03:33:23;;;;;;;76.80;25.77;;;6.20;99.90;;;;;;5050465;28;20032;-89
2021/11/17 03:36:20;;;;;;;78.97;25.77;;;6.20;99.90;;;;;;5017010;28;20021;-89
2021/11/17 03:39:19;;;;;;;80.03;27.75;;;6.20;99.90;;;;;;5014571;28;20055;-89
2021/11/17 03:42:03;;;;;;;78.00;26.80;;;6.20;99.90;;;;;;5001522;28;20031;-89
2021/11/17 03:44:44;;;;;;;69.25;25.60;;;6.20;99.90;;;;;;5012114;28;20021;-89
2021/11/17 03:47:31;;;;;;;73.55;24.50;;;6.20;99.90;;;;;;5016137;28;20080;-89
2021/11/17 03:50:26;;;;;;;75.40;26.40;;;6.20;99.90;;;;;;5017215;28;20048;-90
2021/11/17 03:53:18;;;;;;;71.57;25.10;;;6.20;99.90;;;;;;5034287;28;20033;-90
2021/11/17 03:56:02;;;;;;;71.18;27.20;;;6.20;99.90;;;;;;5017069;28;20033;-90
2021/11/17 03:58:30;;;;;;;73.53;25.88;;;6.20;99.90;;;;;;5024816;28;20470;-89
2021/11/17 04:01:26;;;;;;;73.55;25.17;;;6.20;99.90;;;;;;5034029;28;20432;-90
2021/11/17 04:04:09;;;;;;;76.97;26.63;;;6.20;99.90;;;;;;5019065;28;20020;-89
2021/11/17 04:06:50;;;;;;;72.65;25.05;;;6.20;99.90;;;;;;5030195;28;20476;-89
2021/11/17 04:09:25;;;;;;;69.40;25.35;;;6.20;99.90;;;;;;5030572;28;20074;-90
2021/11/17 04:12:03;;;;;;;70.97;25.42;;;6.20;99.90;;;;;;5032124;28;20033;-90
2021/11/17 04:14:57;;;;;;;81.50;26.77;;;6.30;99.90;;;;;;5015925;28;20032;-89
2021/11/17 04:17:47;;;;;;;64.22;23.60;;;6.30;99.90;;;;;;5016598;28;20056;-89
2021/11/17 04:20:35;;;;;;;69.10;24.77;;;6.30;99.90;;;;;;5015944;28;20083;-90
2021/11/17 04:23:09;;;;;;;69.90;24.60;;;6.40;99.90;;;;;;5000288;28;20033;-90
2021/11/17 04:25:57;;;;;;;73.43;25.13;;;6.30;99.90;;;;;;5021323;28;20519;-90
2021/11/17 04:28:51;;;;;;;72.65;26.27;;;6.40;99.90;;;;;;5000171;28;20426;-89
2021/11/17 04:31:42;;;;;;;68.07;24.50;;;6.40;99.90;;;;;;4993462;28;20037;-90
2021/11/17 04:34:48;;;;;;;73.20;24.08;;;6.50;99.90;;;;;;5016064;28;20023;-89
2021/11/17 04:37:39;;;;;;;64.45;22.77;;;6.40;99.90;;;;;;5013541;28;20025;-90
2021/11/17 04:40:17;;;;;;;81.57;24.42;;;6.40;99.90;;;;;;5046262;28;20075;-89
2021/11/17 04:43:20;;;;;;;80.53;27.20;;;6.40;99.90;;;;;;5034879;28;20040;-90
2021/11/17 04:46:04;;;;;;;;;;;6.40;99.90;;;;;;5018873;28;20025;-90
2021/11/17 04:48:45;;;;;;;76.65;25.95;;;6.40;99.90;;;;;;5034813;28;19916;-89
2021/11/17 04:51:34;;;;;;;74.18;23.58;;;6.30;99.90;;;;;;5028583;28;20128;-89
2021/11/17 04:54:31;;;;;;;75.13;24.15;;;6.30;99.90;;;;;;5051254;28;20083;-90
2021/11/17 04:57:03;;;;;;;75.85;25.40;;;6.40;99.90;;;;;;5023017;28;20025;-90
2021/11/17 04:59:57;;;;;;;73.82;23.50;;;6.40;99.90;;;;;;5032961;28;20143;-90
2021/11/17 05:03:03;;;;;;;68.68;23.38;;;6.40;99.90;;;;;;5020909;28;20072;-90
2021/11/17 05:05:48;;;;;;;72.32;23.90;;;6.40;99.90;;;;;;4958596;28;20132;-90
2021/11/17 05:08:32;;;;;;;74.53;23.90;;;6.30;99.90;;;;;;5047038;28;20457;-91
2021/11/17 05:11:23;;;;;;;73.50;24.75;;;6.30;99.90;;;;;;5036468;28;20041;-90
2021/11/17 05:14:19;;;;;;;78.13;25.38;;;6.20;99.90;;;;;;5022191;28;20477;-90
2021/11/17 05:16:57;;;;;;;80.60;25.00;;;6.20;99.90;;;;;;5020652;28;20048;-89
2021/11/17 05:20:01;;;;;;;68.35;23.13;;;6.10;99.90;;;;;;5030076;28;20032;-90
2021/11/17 05:22:58;;;;;;;72.85;24.48;;;6.10;99.90;;;;;;5033395;28;20075;-90
2021/11/17 05:25:41;;;;;;;73.55;23.75;;;6.10;99.90;;;;;;5017110;28;20060;-90
2021/11/17 05:28:36;;;;;;;67.90;23.02;;;6.00;99.90;;;;;;5016396;28;20021;-90
2021/11/17 05:31:29;;;;;;;68.72;22.50;;;6.00;99.90;;;;;;5017820;28;20041;-89
2021/11/17 05:34:01;;;;;;;;;;;6.00;99.90;;;;;;5021887;28;20043;-89
2021/11/17 05:36:51;;;;;;;78.70;23.20;;;5.90;99.90;;;;;;5019523;28;20415;-89
2021/11/17 05:39:33;;;;;;;68.72;23.52;;;5.90;99.90;;;;;;5013923;28;20441;-90
2021/11/17 05:42:27;;;;;;;75.95;24.02;;;5.90;99.90;;;;;;5019926;28;20036;-89
2021/11/17 05:45:24;;;;;;;73.47;24.13;;;5.90;99.90;;;;;;5035801;28;20382;-90
2021/11/17 05:47:59;;;;;;;73.40;24.13;;;6.00;99.90;;;;;;5033313;28;20032;-88
2021/11/17 05:50:33;;;;;;;76.25;23.42;;;6.00;99.90;;;;;;5047566;28;20017;-90
2021/11/17 05:53:11;;;;;;;70.35;24.00;;;6.00;99.90;;;;;;5032715;28;20040;-88
2021/11/17 05:55:50;;;;;;;75.93;23.08;;;6.00;99.90;;;;;;5031222;28;20049;-89
2021/11/17 05:58:53;;;;;;;75.03;24.85;;;6.10;99.90;;;;;;5030797;28;20021;-90
2021/11/17 06:01:29;;;;;;;75.20;23.52;;;6.10;99.90;;;;;;5011860;28;20041;-89
2021/11/17 06:04:05;;;;;;;74.70;24.38;;;6.10;99.90;;;;;;5015692;28;20037;-90
2021/11/17 06:06:36;;;;;;;73.93;24.05;;;6.20;99.90;;;;;;5023700;28;20033;-89
2021/11/17 06:09:06;;;;;;;78.47;26.67;;;6.20;99.90;;;;;;5007219;28;20490;-89
2021/11/17 06:11:42;;;;;;;82.15;25.27;;;6.20;99.90;;;;;;5034091;28;20037;-90
2021/11/17 06:14:12;;;;;;;71.40;23.67;;;6.30;99.90;;;;;;5023014;28;20079;-89
2021/11/17 06:16:44;;;;;;;74.97;23.50;;;6.30;99.90;;;;;;5025484;28;20029;-89
2021/11/17 06:19:11;;;;;;;72.95;22.95;;;6.40;99.90;;;;;;5051960;28;20021;-88
2021/11/17 06:21:41;;;;;;;68.82;24.65;;;6.40;99.90;;;;;;5035199;28;20036;-89
2021/11/17 06:24:09;;;;;;;77.65;24.73;;;6.40;99.90;;;;;;5031799;28;20017;-90
2021/11/17 06:26:38;;;;;;;71.10;24.25;;;6.50;99.90;;;;;;5027451;28;20021;-90
2021/11/17 06:29:09;;;;;;;73.53;24.02;;;6.50;99.90;;;;;;5034096;28;20079;-90
2021/11/17 06:31:39;;;;;;;78.90;25.40;;;6.50;99.90;;;;;;5032313;28;20140;-91
2021/11/17 06:34:33;;;;;;;80.32;25.52;;;6.60;99.90;;;;;;5039286;28;20115;-91
2021/11/17 06:37:01;;;;;;;73.10;25.60;;;6.60;99.90;;;;;;5033178;28;20082;-91
2021/11/17 06:39:28;;;;;;;70.97;24.08;;;6.70;99.90;;;;;;5038179;28;20052;-90
2021/11/17 06:41:55;;;;;;;72.25;24.75;;;6.70;99.90;;;;;;5030344;28;20025;-90
2021/11/17 06:44:23;;;;;;;71.07;24.38;;;6.70;99.90;;;;;;5037196;28;20025;-89
2021/11/17 06:46:49;;;;;;;76.93;25.25;;;6.70;99.90;;;;;;5042045;28;20012;-90
2021/11/17 06:49:14;;;;;;;82.32;26.88;;;6.70;99.90;;;;;;5038506;28;20029;-90
2021/11/17 06:51:40;;;;;;;72.47;25.83;;;6.80;99.90;;;;;;5036346;28;20037;-88
2021/11/17 06:54:05;;;;;;;73.13;24.05;;;6.80;99.90;;;;;;5036254;28;20021;-88
2021/11/17 06:56:31;;;;;;;76.85;26.15;;;6.80;99.90;;;;;;5033352;28;20128;-88
2021/11/17 06:58:56;;;;;;;80.47;25.65;;;6.80;99.90;;;;;;5035120;28;20024;-87
2021/11/17 07:01:22;;;;;;;78.32;25.13;;;6.90;99.90;;;;;;5027413;28;20029;-88
2021/11/17 07:03:47;;;;;;;73.13;24.25;;;6.90;99.90;;;;;;5035610;28;20449;-88
2021/11/17 07:06:13;;;;;;;68.90;23.98;;;6.90;99.90;;;;;;5035690;28;20144;-89
2021/11/17 07:08:39;;;;;;;65.70;24.27;;;6.90;99.90;;;;;;5028562;28;20021;-88
2021/11/17 07:11:06;;;;;;;71.72;23.58;;;7.00;99.90;;;;;;5035125;28;20516;-88
2021/11/17 07:13:32;;;;;;;66.90;24.25;;;7.00;99.90;;;;;;5033352;28;20025;-87
2021/11/17 07:15:58;;;;;;;67.68;23.63;;;6.90;99.90;;;;;;5036595;28;20094;-89
2021/11/17 07:18:23;;;;;;;69.65;24.40;;;7.00;99.90;;;;;;5042786;28;20022;-90
2021/11/17 07:20:49;;;;;;;72.60;24.95;;;7.00;99.90;;;;;;5019171;28;20473;-89
2021/11/17 07:23:17;;;;;;;77.93;25.50;;;7.00;99.90;;;;;;5051664;28;20446;-90
2021/11/17 07:25:42;;;;;;;70.00;25.42;;;7.00;99.90;;;;;;5028972;28;20116;-90
2021/11/17 07:28:08;;;;;;;70.07;23.52;;;7.00;99.90;;;;;;5040262;28;20108;-90
2021/11/17 07:30:37;;;;;;;73.18;25.73;;;7.00;99.90;;;;;;5034377;28;20029;-89
2021/11/17 07:33:04;;;;;;;74.20;24.17;;;7.10;99.90;;;;;;5027102;28;20029;-89
2021/11/17 07:35:32;;;;;;;75.97;26.67;;;7.10;99.90;;;;;;5041669;28;20033;-89
2021/11/17 07:38:01;;;;;;;76.75;25.63;;;7.10;99.90;;;;;;5031456;28;20028;-86
2021/11/17 07:40:29;;;;;;;84.20;27.35;;;7.10;99.90;;;;;;5034011;28;20071;-89
2021/11/17 07:42:55;;;;;;;81.35;25.20;;;7.10;99.90;;;;;;5033852;28;20025;-90
2021/11/17 07:45:22;;;;;;;76.80;25.02;;;7.10;99.90;;;;;;5032787;28;20033;-88
2021/11/17 07:47:48;;;;;;;81.05;27.88;;;7.20;99.90;;;;;;5035762;28;20171;-89
2021/11/17 07:50:14;;;;;;;78.10;25.92;;;7.20;99.90;;;;;;5037138;28;20116;-88
2021/11/17 07:52:40;;;;;;;75.40;25.48;;;7.20;99.90;;;;;;5036268;28;20036;-88
2021/11/17 07:55:09;;;;;;;84.53;27.35;;;7.20;99.90;;;;;;5033879;28;20076;-89
2021/11/17 07:57:37;;;;;;;77.90;26.50;;;7.20;99.90;;;;;;5033152;28;20032;-88
2021/11/17 08:00:06;;;;;;;79.78;27.38;;;7.30;99.90;;;;;;5037812;28;20059;-89
2021/11/17 08:02:32;;;;;;;85.97;28.73;;;7.30;99.90;;;;;;5035193;28;20025;-89
2021/11/17 08:04:58;;;;;;;88.20;29.52;;;7.30;99.90;;;;;;5032405;28;20025;-89
2021/11/17 08:07:23;;;;;;;88.22;28.50;;;7.30;99.90;;;;;;5035164;28;20024;-89
2021/11/17 08:09:49;;;;;;;89.03;29.33;;;7.30;99.90;;;;;;5037733;28;20482;-89
2021/11/17 08:12:17;;;;;;;88.95;27.90;;;7.40;99.90;;;;;;5036711;28;20102;-89
2021/11/17 08:14:42;;;;;;;84.95;27.58;;;7.40;99.90;;;;;;5036313;28;20525;-89
2021/11/17 08:17:08;;;;;;;90.30;27.35;;;7.40;99.90;;;;;;5039578;28;20025;-90
2021/11/17 08:19:33;;;;;;;88.70;29.13;;;7.50;99.90;;;;;;5035671;28;20021;-92
2021/11/17 08:22:06;;;;;;;91.30;30.35;;;7.50;99.90;;;;;;5035263;28;20481;-91
2021/11/17 08:24:31;;;;;;;87.47;27.67;;;7.50;99.90;;;;;;5028205;28;20501;-91
2021/11/17 08:26:57;;;;;;;88.78;28.60;;;7.50;99.90;;;;;;5042982;28;20029;-89
2021/11/17 08:29:22;;;;;;;88.53;28.52;;;7.50;99.90;;;;;;5034769;28;20025;-91
2021/11/17 08:31:48;;;;;;;88.75;29.15;;;7.50;99.90;;;;;;5044263;28;20041;-91
2021/11/17 08:34:14;;;;;;;88.65;28.45;;;7.50;99.90;;;;;;5034246;28;20021;-90
2021/11/17 08:36:39;;;;;;;80.07;27.83;;;7.60;99.90;;;;;;5029099;28;20075;-91
2021/11/17 08:39:05;;;;;;;87.53;28.88;;;7.70;99.90;;;;;;5035285;28;20025;-92
2021/11/17 08:41:31;;;;;;;87.38;29.83;;;7.70;99.90;;;;;;5032586;28;20444;-91
2021/11/17 08:43:56;;;;;;;93.60;29.90;;;7.70;99.90;;;;;;5032972;28;20029;-91
2021/11/17 08:46:24;;;;;;;97.75;29.58;;;7.70;99.90;;;;;;5028195;28;20025;-92
2021/11/17 08:48:51;;;;;;;99.03;32.88;;;7.80;99.90;;;;;;5034145;28;20512;-92
2021/11/17 08:51:18;;;;;;;101.07;33.10;;;7.80;99.90;;;;;;5038329;28;20059;-91
2021/11/17 08:53:45;;;;;;;88.93;29.80;;;7.80;99.90;;;;;;5033308;28;20108;-91
2021/11/17 08:56:11;;;;;;;100.05;33.05;;;7.90;99.90;;;;;;5034851;28;20021;-92
2021/11/17 08:58:39;;;;;;;104.05;33.65;;;7.90;99.90;;;;;;5035777;28;20491;-90
2021/11/17 09:01:06;;;;;;;101.35;32.78;;;7.90;99.90;;;;;;5037758;28;20055;-91
2021/11/17 09:03:33;;;;;;;99.55;32.47;;;7.90;99.90;;;;;;5036419;28;20487;-91
2021/11/17 09:06:00;;;;;;;99.82;32.17;;;8.00;99.90;;;;;;5034575;28;20074;-92
2021/11/17 09:08:28;;;;;;;108.53;34.60;;;8.00;99.90;;;;;;5039404;28;20052;-92
2021/11/17 09:10:56;;;;;;;101.40;30.88;;;8.00;99.90;;;;;;5037949;28;20064;-91
2021/11/17 09:13:22;;;;;;;108.63;33.92;;;8.00;99.90;;;;;;5037498;28;20028;-91
2021/11/17 09:15:50;;;;;;;98.53;32.47;;;8.00;99.90;;;;;;5037401;28;20025;-92
2021/11/17 09:18:19;;;;;;;107.47;33.53;;;8.00;99.90;;;;;;5036245;28;20078;-92
2021/11/17 09:20:45;;;;;;;106.90;32.90;;;8.00;99.90;;;;;;5031871;28;20299;-92
2021/11/17 09:23:12;;;;;;;109.85;34.10;;;8.10;99.90;;;;;;5034713;28;20377;-92
2021/11/17 09:25:38;;;;;;;98.80;32.70;;;8.00;99.90;;;;;;5038344;28;20020;-92
2021/11/17 09:28:05;;;;;;;106.68;34.08;;;8.00;99.90;;;;;;5040659;28;20028;-92
2021/11/17 09:30:32;;;;;;;99.70;33.22;;;8.00;99.90;;;;;;5043927;28;20029;-91
2021/11/17 09:32:59;;;;;;;108.75;35.67;;;8.10;99.90;;;;;;5049783;28;20059;-91
2021/11/17 09:35:29;;;;;;;103.88;35.40;;;8.10;99.90;;;;;;5043194;28;20095;-92
2021/11/17 09:37:54;;;;;;;112.00;37.40;;;8.20;99.90;;;;;;5037049;28;20737;-92
2021/11/17 09:40:27;;;;;;;108.10;35.78;;;8.30;99.90;;;;;;5045810;28;20160;-92
2021/11/17 09:42:57;;;;;;;115.93;36.35;;;8.30;99.90;;;;;;5057511;28;20055;-92
2021/11/17 09:45:25;;;;;;;107.22;35.92;;;8.40;99.90;;;;;;5049835;28;20470;-92
2021/11/17 09:47:53;;;;;;;118.40;35.97;;;8.40;99.90;;;;;;5037541;28;20052;-92
2021/11/17 09:50:21;;;;;;;116.72;37.38;;;8.40;99.90;;;;;;5040529;28;20032;-91
2021/11/17 09:52:55;;;;;;;117.22;36.90;;;8.40;99.90;;;;;;5038486;28;20032;-91
2021/11/17 09:55:26;;;;;;;115.53;37.95;;;8.50;99.90;;;;;;5058085;28;20025;-91
2021/11/17 09:57:59;;;;;;;124.38;40.80;;;8.50;99.90;;;;;;5027954;28;20071;-92
2021/11/17 10:00:42;;;;;;;123.45;39.67;;;8.50;99.90;;;;;;5038341;28;20045;-91
2021/11/17 10:03:19;;;;;;;132.27;39.58;;;8.60;99.90;;;;;;5028400;28;20104;-90
2021/11/17 10:11:40;;;;;;;132.07;41.75;;;8.70;99.90;;;;;;5047017;28;20037;-90
2021/11/17 10:14:18;;;;;;;118.97;38.60;;;8.80;99.90;;;;;;5034424;28;20030;-89
2021/11/17 10:16:44;;;;;;;126.78;39.63;;;8.90;99.90;;;;;;5046138;28;20083;-91
2021/11/17 10:19:15;;;;;;;129.10;40.90;;;9.00;99.90;;;;;;5042273;28;20056;-91
2021/11/17 10:21:43;;;;;;;135.45;41.95;;;9.10;99.90;;;;;;5033504;28;20029;-91
2021/11/17 10:24:14;;;;;;;123.53;39.22;;;9.10;99.90;;;;;;5037661;28;20508;-92
2021/11/17 10:27:01;;;;;;;124.75;40.45;;;9.20;99.90;;;;;;5035641;28;20032;-90
2021/11/17 10:29:32;;;;;;;141.27;43.25;;;9.20;99.90;;;;;;5026665;28;20377;-92
2021/11/17 10:32:15;;;;;;;114.55;39.10;;;9.20;99.90;;;;;;5034426;28;20041;-90
2021/11/17 10:35:07;;;;;;;;;;;9.10;99.90;;;;;;5032035;28;20021;-92
2021/11/17 10:37:35;;;;;;;136.30;39.92;;;9.10;99.90;;;;;;5031213;28;19959;-91
2021/11/17 10:40:20;;;;;;;134.02;41.15;;;9.10;99.90;;;;;;5027451;28;20025;-93
2021/11/17 10:42:56;;;;;;;131.52;40.72;;;9.10;99.90;;;;;;5034276;28;20028;-90
2021/11/17 10:45:29;;;;;;;123.70;38.50;;;9.10;99.90;;;;;;5036740;28;20037;-91
2021/11/17 10:47:56;;;;;;;130.70;41.63;;;9.10;99.90;;;;;;5035950;28;20032;-94
2021/11/17 10:50:33;;;;;;;134.48;42.17;;;9.20;99.90;;;;;;5028439;28;20029;-93
2021/11/17 10:53:06;;;;;;;139.05;43.40;;;9.30;99.90;;;;;;5035848;28;20033;-94
2021/11/17 10:55:38;;;;;;;128.02;39.92;;;9.30;99.90;;;;;;5030876;28;20079;-93
2021/11/17 10:58:14;;;;;;;143.25;45.00;;;9.50;99.90;;;;;;5035145;28;20044;-93
2021/11/17 11:00:58;;;;;;;124.22;39.65;;;9.50;99.90;;;;;;5032967;28;20124;-93
2021/11/17 11:03:28;;;;;;;127.32;41.13;;;9.60;99.90;;;;;;5032860;28;20127;-94
2021/11/17 11:06:04;;;;;;;129.00;39.85;;;9.60;99.90;;;;;;5022655;28;20021;-93
2021/11/17 11:08:36;;;;;;;144.93;44.55;;;9.70;99.90;;;;;;5054846;28;20032;-94
2021/11/17 11:11:04;;;;;;;133.98;42.60;;;9.80;99.90;;;;;;5038955;28;20047;-93
2021/11/17 11:13:34;;;;;;;129.13;40.90;;;9.80;99.90;;;;;;5044204;28;20111;-93
2021/11/17 11:16:10;;;;;;;127.45;40.63;;;9.80;99.90;;;;;;5036339;28;20064;-92
2021/11/17 11:18:44;;;;;;;120.25;40.20;;;9.90;99.90;;;;;;5031994;28;20061;-93
2021/11/17 11:21:12;;;;;;;136.73;44.78;;;10.00;99.90;;;;;;5051902;28;20032;-91
2021/11/17 11:24:06;;;;;;;128.43;41.65;;;10.10;99.90;;;;;;5039177;28;20029;-91
2021/11/17 11:26:57;;;;;;;127.05;42.58;;;10.10;99.90;;;;;;5031539;28;20028;-92
2021/11/17 11:29:33;;;;;;;121.55;41.83;;;10.20;99.90;;;;;;5047323;28;20060;-92
2021/11/17 11:32:30;;;;;;;118.30;42.05;;;10.30;99.90;;;;;;5048279;28;20120;-90
2021/11/17 11:34:58;;;;;;;115.68;40.03;;;10.30;99.90;;;;;;5006003;28;20049;-91
2021/11/17 11:37:24;;;;;;;118.97;40.15;;;10.30;99.90;;;;;;5028261;28;20071;-91
2021/11/17 11:40:17;;;;;;;129.38;42.97;;;10.40;99.90;;;;;;5035211;28;20060;-91
2021/11/17 11:43:04;;;;;;;116.28;40.10;;;10.50;99.90;;;;;;5011576;28;20124;-91
2021/11/17 11:45:30;;;;;;;109.78;39.53;;;10.60;99.90;;;;;;5040653;28;20029;-91
2021/11/17 11:48:13;;;;;;;113.05;40.83;;;10.50;99.90;;;;;;5035230;28;20056;-91
2021/11/17 11:50:39;;;;;;;107.00;39.38;;;10.60;99.90;;;;;;5028255;28;20028;-92
2021/11/17 11:53:25;;;;;;;104.88;39.30;;;10.80;99.90;;;;;;5037041;28;20033;-90
2021/11/17 11:55:53;;;;;;;108.45;38.72;;;11.00;99.90;;;;;;5034021;28;20060;-91
2021/11/17 11:58:19;;;;;;;97.82;38.17;;;11.10;99.90;;;;;;5035465;28;20120;-92
2021/11/17 12:00:47;;;;;;;86.32;36.35;;;11.20;99.90;;;;;;5030440;28;20568;-91
2021/11/17 12:03:15;;;;;;;92.90;36.70;;;11.20;99.90;;;;;;5034100;28;20029;-91
2021/11/17 12:05:53;;;;;;;82.55;34.45;;;11.30;99.90;;;;;;5034841;28;20053;-92
2021/11/17 12:08:31;;;;;;;85.43;33.92;;;11.30;99.90;;;;;;5036320;28;20120;-90
2021/11/17 12:11:03;;;;;;;90.63;35.40;;;11.20;99.90;;;;;;5037266;28;20116;-91
2021/11/17 12:13:38;;;;;;;82.53;34.37;;;11.20;99.90;;;;;;5036804;28;20079;-91
2021/11/17 12:16:15;;;;;;;89.38;36.78;;;11.20;99.90;;;;;;5032350;28;20291;-91
2021/11/17 12:19:07;;;;;;;89.20;35.80;;;11.10;99.90;;;;;;5016260;28;20543;-89
2021/11/17 12:21:39;;;;;;;81.75;32.42;;;11.10;99.90;;;;;;5033839;28;20108;-91
2021/11/17 12:24:27;;;;;;;86.82;34.67;;;11.10;99.90;;;;;;5036879;28;20033;-90
2021/11/17 12:27:15;;;;;;;81.05;31.65;;;11.10;99.90;;;;;;5037639;28;20044;-91
2021/11/17 12:29:54;;;;;;;76.28;32.42;;;11.10;99.90;;;;;;5022756;28;20032;-91
2021/11/17 12:32:53;;;;;;;66.25;29.83;;;11.10;99.90;;;;;;5026029;28;20059;-92
2021/11/17 12:35:29;;;;;;;74.10;30.63;;;11.20;99.90;;;;;;5034135;28;20551;-91
2021/11/17 12:38:02;;;;;;;70.65;30.15;;;11.30;99.90;;;;;;5035227;28;20060;-90
2021/11/17 12:40:48;;;;;;;68.15;29.50;;;11.40;99.90;;;;;;5038057;28;20079;-90
2021/11/17 12:43:31;;;;;;;70.00;30.33;;;11.50;99.90;;;;;;5038735;28;20029;-91
2021/11/17 12:46:24;;;;;;;60.95;25.95;;;11.50;99.90;;;;;;5034026;28;20036;-91
2021/11/17 12:48:55;;;;;;;56.15;25.95;;;11.50;99.90;;;;;;5034481;28;20393;-90
2021/11/17 12:51:28;;;;;;;55.28;24.25;;;11.50;99.90;;;;;;5038691;28;20113;-91
2021/11/17 12:53:58;;;;;;;49.38;23.08;;;11.60;99.90;;;;;;5037892;28;20021;-90
2021/11/17 12:56:45;;;;;;;46.10;22.73;;;11.70;99.90;;;;;;5036865;28;20033;-91
2021/11/17 12:59:17;;;;;;;52.05;22.33;;;11.80;99.90;;;;;;5038320;28;20083;-90
2021/11/17 13:01:49;;;;;;;49.60;22.48;;;11.90;99.90;;;;;;5037711;28;20442;-89
2021/11/17 13:04:14;;;;;;;48.93;22.57;;;12.00;99.90;;;;;;5041637;28;20040;-88
2021/11/17 13:06:40;;;;;;;50.65;21.48;;;12.10;99.90;;;;;;5040501;28;20465;-89
2021/11/17 13:09:31;;;;;;;48.40;20.83;;;12.20;99.90;;;;;;5027139;28;20028;-90
2021/11/17 13:12:12;;;;;;;44.90;20.63;;;12.20;99.90;;;;;;5025075;28;20425;-88
2021/11/17 13:14:43;;;;;;;44.50;20.30;;;12.20;99.90;;;;;;5025407;28;20480;-87
2021/11/17 13:17:10;;;;;;;38.13;17.70;;;12.00;99.90;;;;;;5041831;28;20030;-90
2021/11/17 13:19:51;;;;;;;28.58;12.20;;;11.80;99.90;;;;;;5029403;28;20028;-90
2021/11/17 13:22:29;;;;;;;28.85;8.00;;;11.60;99.90;;;;;;5042026;28;20028;-92
2021/11/17 13:25:28;;;;;;;26.95;7.07;;;11.50;99.90;;;;;;5052689;28;20037;-91
2021/11/17 13:28:04;;;;;;;23.40;5.03;;;11.30;99.90;;;;;;5030433;28;20025;-91
2021/11/17 13:30:36;;;;;;;21.33;3.00;;;11.20;99.90;;;;;;5052736;28;20017;-91
2021/11/17 13:33:32;;;;;;;17.67;2.60;;;11.10;99.90;;;;;;5038959;28;20040;-90
2021/11/17 13:36:02;;;;;;;17.55;2.05;;;11.10;99.90;;;;;;5031740;28;20037;-90
2021/11/17 13:38:28;;;;;;;17.33;2.17;;;11.00;99.90;;;;;;5040810;28;20029;-90
2021/11/17 13:41:01;;;;;;;12.52;1.88;;;11.00;99.90;;;;;;5053597;28;20029;-89
2021/11/17 13:43:26;;;;;;;;;;;10.90;99.90;;;;;;5039840;28;20171;-90
2021/11/17 13:45:55;;;;;;;18.52;1.92;;;10.90;99.90;;;;;;5038929;28;19960;-89
2021/11/17 13:48:26;;;;;;;21.77;3.28;;;10.80;99.90;;;;;;5049310;28;20112;-90
2021/11/17 13:50:53;;;;;;;21.80;2.63;;;10.70;99.90;;;;;;5038397;28;20035;-90
2021/11/17 13:53:20;;;;;;;14.85;1.92;;;10.70;99.90;;;;;;5037233;28;20052;-90
2021/11/17 13:55:52;;;;;;;13.85;2.05;;;10.70;99.90;;;;;;5056341;28;20021;-90
2021/11/17 13:58:18;;;;;;;21.42;1.83;;;10.80;99.90;;;;;;5053268;28;20021;-88
2021/11/17 14:00:44;;;;;;;24.70;2.20;;;10.80;99.90;;;;;;5039317;28;20048;-90
2021/11/17 14:03:10;;;;;;;20.02;1.67;;;10.80;99.90;;;;;;5047929;28;20057;-89
2021/11/17 14:05:40;;;;;;;19.65;2.15;;;10.80;99.90;;;;;;5036976;28;20029;-89
2021/11/17 14:08:07;;;;;;;17.77;1.77;;;10.80;99.90;;;;;;5032580;28;20037;-89
2021/11/17 14:10:33;;;;;;;19.58;2.67;;;10.80;99.90;;;;;;5032409;28;20381;-90
2021/11/17 14:13:00;;;;;;;18.92;1.63;;;10.80;99.90;;;;;;5029144;28;20036;-90
2021/11/17 14:15:29;;;;;;;17.40;1.83;;;10.90;99.90;;;;;;5033543;28;20024;-92
2021/11/17 14:17:55;;;;;;;19.52;1.65;;;10.80;99.90;;;;;;5029420;28;20033;-89
2021/11/17 14:20:22;;;;;;;24.35;3.28;;;10.80;99.90;;;;;;5035552;28;20095;-90
2021/11/17 14:22:48;;;;;;;22.58;1.98;;;10.70;99.90;;;;;;5037370;28;20025;-91
2021/11/17 14:25:17;;;;;;;18.83;1.60;;;10.70;99.90;;;;;;5037362;28;20033;-90
2021/11/17 14:27:46;;;;;;;18.85;2.80;;;10.60;99.90;;;;;;5030598;28;20036;-91
2021/11/17 14:30:20;;;;;;;15.95;1.58;;;10.60;99.90;;;;;;5039431;28;20098;-91
2021/11/17 14:32:48;;;;;;;19.27;1.77;;;10.50;99.90;;;;;;5033876;28;20065;-90
2021/11/17 14:35:14;;;;;;;15.52;1.30;;;10.50;99.90;;;;;;5049945;28;20022;-90
2021/11/17 14:37:42;;;;;;;20.08;2.25;;;10.50;99.90;;;;;;5025239;28;20056;-91
2021/11/17 14:40:10;;;;;;;17.92;1.63;;;10.40;99.90;;;;;;5032035;28;20032;-90
2021/11/17 14:42:36;;;;;;;18.85;2.45;;;10.30;99.90;;;;;;5025003;28;20103;-89
2021/11/17 14:45:05;;;;;;;25.73;1.70;;;10.20;99.90;;;;;;5031850;28;20033;-90
2021/11/17 14:47:30;;;;;;;19.50;1.75;;;10.20;99.90;;;;;;5025582;28;20033;-91
2021/11/17 14:49:56;;;;;;;16.02;1.90;;;10.10;99.90;;;;;;5027996;28;20043;-90
2021/11/17 14:52:22;;;;;;;13.43;1.80;;;10.00;99.90;;;;;;5032875;28;20040;-90
2021/11/17 14:54:48;;;;;;;14.02;1.55;;;9.90;99.90;;;;;;5034926;28;20083;-89
2021/11/17 14:57:14;;;;;;;18.92;2.08;;;9.90;99.90;;;;;;5032015;28;20031;-90
2021/11/17 14:59:39;;;;;;;18.08;2.05;;;9.80;99.90;;;;;;5034165;28;20396;-90
2021/11/17 15:02:06;;;;;;;16.83;1.95;;;9.70;99.90;;;;;;5032806;28;20048;-90
2021/11/17 15:04:35;;;;;;;16.73;1.65;;;9.70;99.90;;;;;;5028384;28;20084;-90
2021/11/17 15:07:02;;;;;;;18.58;2.40;;;9.60;99.90;;;;;;5044973;28;20037;-89
2021/11/17 15:09:28;;;;;;;13.43;1.08;;;9.60;99.90;;;;;;5027238;28;20021;-90
2021/11/17 15:12:22;;;;;;;14.15;1.77;;;9.50;99.90;;;;;;5026938;28;20037;-89
2021/11/17 15:14:48;;;;;;;15.40;1.33;;;9.50;99.90;;;;;;5028998;28;20021;-90
2021/11/17 15:17:15;;;;;;;20.13;1.30;;;9.40;99.90;;;;;;5015103;28;20028;-90
2021/11/17 15:19:41;;;;;;;18.00;1.40;;;9.30;99.90;;;;;;5033454;28;20037;-89
2021/11/17 15:22:07;;;;;;;12.48;1.52;;;9.30;99.90;;;;;;5021176;28;20025;-90
2021/11/17 15:24:34;;;;;;;17.92;1.30;;;9.20;99.90;;;;;;5035423;28;20040;-90
2021/11/17 15:27:36;;;;;;;20.52;1.65;;;9.20;99.90;;;;;;5035114;28;20392;-90
2021/11/17 15:30:06;;;;;;;20.85;2.13;;;9.10;99.90;;;;;;4995851;28;20037;-90
2021/11/17 15:32:31;;;;;;;14.95;1.52;;;9.00;99.90;;;;;;5043572;28;20473;-90
2021/11/17 15:34:57;;;;;;;16.15;1.40;;;9.00;99.90;;;;;;5023937;28;20036;-90
2021/11/17 15:37:23;;;;;;;22.92;1.83;;;8.90;99.90;;;;;;5023874;28;20029;-90
2021/11/17 15:39:49;;;;;;;23.02;1.45;;;8.90;99.90;;;;;;5033221;28;20033;-90
2021/11/17 15:42:15;;;;;;;14.55;1.92;;;8.90;99.90;;;;;;5036248;28;20079;-90
2021/11/17 15:44:41;;;;;;;23.83;1.67;;;8.80;99.90;;;;;;5032752;28;20092;-89
2021/11/17 15:47:09;;;;;;;16.33;1.48;;;8.80;99.90;;;;;;5023843;28;20449;-89
2021/11/17 15:49:36;;;;;;;13.65;0.93;;;8.70;99.90;;;;;;5031280;28;20024;-89